createdAt,value
2023-12-07T00:00:07.836Z,101084.17
2023-12-07T00:02:36.853Z,101084.30
2023-12-07T00:05:06.220Z,101086.16
2023-12-07T00:07:36.717Z,101092.19
2023-12-07T00:10:06.129Z,101092.18
2023-12-07T00:12:37.202Z,101091.27
2023-12-07T00:15:08.732Z,101089.20
2023-12-07T00:17:38.676Z,101100.08
2023-12-07T00:20:08.119Z,101099.75
2023-12-07T00:22:37.750Z,101102.52
2023-12-07T00:25:07.422Z,101104.94
2023-12-07T00:27:37.785Z,101103.38
2023-12-07T00:30:07.811Z,101108.41
2023-12-07T00:32:37.761Z,101107.73
2023-12-07T00:43:31.409Z,101100.26
2023-12-07T00:45:59.788Z,101098.29
2023-12-07T00:48:29.709Z,101102.92
2023-12-07T00:51:10.348Z,101112.36
2023-12-07T00:53:43.667Z,101113.39
2023-12-07T00:56:23.078Z,101114.22
2023-12-07T00:59:01.916Z,101108.44
2023-12-07T01:01:34.738Z,101105.94
2023-12-07T01:04:05.952Z,101107.08
2023-12-07T01:06:39.558Z,101106.36
2023-12-07T01:09:21.845Z,101110.27
2023-12-07T01:11:56.124Z,101114.04
2023-12-07T01:14:24.245Z,101110.37
2023-12-07T01:16:52.536Z,101114.80
2023-12-07T01:19:21.335Z,101109.91
2023-12-07T01:21:58.828Z,101113.61
2023-12-07T01:24:28.638Z,101112.53
2023-12-07T01:27:02.202Z,101114.42
2023-12-07T01:29:42.069Z,101111.95
2023-12-07T01:32:11.231Z,101107.96
2023-12-07T01:34:53.799Z,101107.26
2023-12-07T01:37:25.517Z,101103.44
2023-12-07T01:39:54.499Z,101100.66
2023-12-07T01:42:26.012Z,101102.86
2023-12-07T01:44:59.782Z,101103.02
2023-12-07T01:47:29.279Z,101105.13
2023-12-07T01:50:04.008Z,101103.08
2023-12-07T01:52:32.451Z,101103.60
2023-12-07T01:55:14.629Z,101107.02
2023-12-07T01:57:48.287Z,101105.14
2023-12-07T02:00:21.274Z,101105.07
2023-12-07T02:02:53.262Z,101106.70
2023-12-07T02:05:26.529Z,101106.67
2023-12-07T02:07:55.236Z,101103.70
2023-12-07T02:10:26.072Z,101100.23
2023-12-07T02:12:59.410Z,101101.78
2023-12-07T02:15:28.613Z,101103.67
2023-12-07T02:18:21.605Z,101103.98
2023-12-07T02:20:59.716Z,101100.17
2023-12-07T02:23:46.668Z,101097.07
2023-12-07T02:26:56.174Z,101093.06
2023-12-07T02:29:24.684Z,101091.85
2023-12-07T02:31:55.797Z,101089.98
2023-12-07T02:34:24.620Z,101086.88
2023-12-07T02:36:54.922Z,101085.85
2023-12-07T02:39:27.658Z,101085.52
2023-12-07T02:41:56.552Z,101082.08
2023-12-07T02:44:29.180Z,101077.59
2023-12-07T02:46:57.643Z,101083.98
2023-12-07T02:49:30.976Z,101081.69
2023-12-07T02:52:01.508Z,101082.36
2023-12-07T02:54:30.791Z,101087.70
2023-12-07T02:57:03.253Z,101087.91
2023-12-07T02:59:31.734Z,101084.50
2023-12-07T03:02:02.507Z,101091.27
2023-12-07T03:04:54.445Z,101090.23
2023-12-07T03:07:24.289Z,101090.26
2023-12-07T03:09:59.071Z,101092.98
2023-12-07T03:12:49.040Z,101093.31
2023-12-07T03:15:17.293Z,101089.84
2023-12-07T03:17:48.799Z,101095.19
2023-12-07T03:20:16.924Z,101094.84
2023-12-07T03:22:46.374Z,101096.05
2023-12-07T03:25:14.522Z,101098.85
2023-12-07T03:27:43.625Z,101094.38
2023-12-07T03:30:13.181Z,101089.56
2023-12-07T03:32:42.848Z,101088.69
2023-12-07T03:35:18.942Z,101089.92
2023-12-07T03:37:54.009Z,101089.94
2023-12-07T03:40:26.203Z,101084.56
2023-12-07T03:43:09.236Z,101086.98
2023-12-07T03:45:37.389Z,101092.69
2023-12-07T03:48:06.527Z,101093.39
2023-12-07T03:50:40.068Z,101092.70
2023-12-07T03:53:08.254Z,101093.59
2023-12-07T03:55:52.396Z,101094.29
2023-12-07T03:58:21.229Z,101099.27
2023-12-07T04:00:50.784Z,101097.52
2023-12-07T04:03:18.710Z,101098.41
2023-12-07T04:05:52.460Z,101099.32
2023-12-07T04:08:25.124Z,101096.05
2023-12-07T04:10:54.645Z,101096.62
2023-12-07T04:13:22.986Z,101095.98
2023-12-07T04:15:51.000Z,101097.21
2023-12-07T04:18:20.075Z,101098.95
2023-12-07T04:20:48.184Z,101098.25
2023-12-07T04:23:18.911Z,101099.42
2023-12-07T04:26:08.705Z,101091.82
2023-12-07T04:28:46.702Z,101093.04
2023-12-07T04:31:18.972Z,101087.52
2023-12-07T04:33:50.422Z,101087.16
2023-12-07T04:36:23.518Z,101084.91
2023-12-07T04:38:56.997Z,101083.54
2023-12-07T04:41:45.649Z,101081.98
2023-12-07T04:44:18.128Z,101085.48
2023-12-07T04:46:47.176Z,101075.61
2023-12-07T04:49:17.751Z,101081.67
2023-12-07T04:51:48.096Z,101076.96
2023-12-07T04:56:09.081Z,101058.39
2023-12-07T04:58:40.903Z,101051.61
2023-12-07T05:01:08.989Z,101055.08
2023-12-07T05:03:41.273Z,101059.73
2023-12-07T05:06:13.363Z,101068.74
2023-12-07T05:09:11.036Z,101073.59
2023-12-07T05:11:39.202Z,101070.17
2023-12-07T05:14:10.053Z,101071.05
2023-12-07T05:16:43.013Z,101079.33
2023-12-07T05:19:16.170Z,101078.96
2023-12-07T05:21:45.029Z,101080.34
2023-12-07T05:24:18.430Z,101080.35
2023-12-07T05:26:50.062Z,101080.53
2023-12-07T05:29:26.126Z,101082.98
2023-12-07T05:32:09.344Z,101080.02
2023-12-07T05:34:39.252Z,101083.82
2023-12-07T05:39:54.668Z,101091.96
2023-12-07T05:42:22.819Z,101089.58
2023-12-07T05:44:52.689Z,101084.27
2023-12-07T05:47:21.331Z,101093.23
2023-12-07T05:49:50.790Z,101091.87
2023-12-07T05:52:18.833Z,101096.06
2023-12-07T05:54:48.713Z,101091.41
2023-12-07T05:57:21.694Z,101086.39
2023-12-07T05:59:59.092Z,101086.23
2023-12-07T06:02:32.307Z,101088.32
2023-12-07T06:05:00.532Z,101083.64
2023-12-07T06:07:28.987Z,101086.25
2023-12-07T06:09:57.214Z,101087.48
2023-12-07T06:12:31.094Z,101091.11
2023-12-07T06:14:59.810Z,101089.56
2023-12-07T06:17:32.286Z,101088.90
2023-12-07T06:20:00.278Z,101089.23
2023-12-07T06:22:36.765Z,101088.38
2023-12-07T06:25:05.704Z,101084.91
2023-12-07T06:27:36.140Z,101087.52
2023-12-07T06:30:10.357Z,101086.16
2023-12-07T06:32:38.993Z,101088.45
2023-12-07T06:35:07.602Z,101086.23
2023-12-07T06:37:38.984Z,101087.45
2023-12-07T06:40:11.211Z,101092.68
2023-12-07T06:42:43.928Z,101091.69
2023-12-07T06:45:24.281Z,101092.75
2023-12-07T06:47:53.815Z,101094.98
2023-12-07T06:50:23.226Z,101092.07
2023-12-07T06:52:52.413Z,101085.50
2023-12-07T06:55:21.542Z,101088.48
2023-12-07T06:57:55.750Z,101082.27
2023-12-07T07:00:26.445Z,101084.55
2023-12-07T07:02:59.223Z,101086.83
2023-12-07T07:05:32.967Z,101086.50
2023-12-07T07:08:01.527Z,101088.45
2023-12-07T07:10:37.129Z,101089.68
2023-12-07T07:13:10.112Z,101094.20
2023-12-07T07:15:38.738Z,101094.45
2023-12-07T07:18:08.113Z,101096.20
2023-12-07T07:20:38.147Z,101098.85
2023-12-07T07:23:06.025Z,101098.54
2023-12-07T07:25:39.028Z,101099.23
2023-12-07T07:28:10.535Z,101094.10
2023-12-07T07:31:05.394Z,101091.22
2023-12-07T07:33:44.744Z,101092.65
2023-12-07T07:36:18.831Z,101098.73
2023-12-07T07:38:50.170Z,101101.70
2023-12-07T07:41:24.981Z,101100.48
2023-12-07T07:43:53.364Z,101100.48
2023-12-07T07:46:28.576Z,101099.80
2023-12-07T07:48:59.164Z,101102.39
2023-12-07T07:51:28.430Z,101106.22
2023-12-07T07:54:03.266Z,101111.09
2023-12-07T07:56:31.535Z,101111.13
2023-12-07T07:59:02.064Z,101110.13
2023-12-07T08:01:30.545Z,101113.27
2023-12-07T08:04:01.301Z,101116.73
2023-12-07T08:06:29.151Z,101121.43
2023-12-07T08:09:05.424Z,101119.59
2023-12-07T08:11:37.994Z,101123.06
2023-12-07T08:14:09.754Z,101115.31
2023-12-07T08:16:45.435Z,101112.75
2023-12-07T08:19:14.815Z,101109.64
2023-12-07T08:21:43.331Z,101109.67
2023-12-07T08:24:16.486Z,101108.14
2023-12-07T08:26:45.390Z,101104.52
2023-12-07T08:29:13.236Z,101101.42
2023-12-07T08:31:44.735Z,101098.14
2023-12-07T08:34:13.588Z,101095.19
2023-12-07T08:36:43.097Z,101091.23
2023-12-07T08:39:12.765Z,101091.55
2023-12-07T08:41:41.191Z,101089.31
2023-12-07T08:44:14.385Z,101092.78
2023-12-07T08:46:47.931Z,101089.33
2023-12-07T08:49:23.662Z,101094.85
2023-12-07T08:52:10.354Z,101088.80
2023-12-07T08:54:53.247Z,101087.10
2023-12-07T08:57:26.623Z,101085.91
2023-12-07T08:59:57.523Z,101085.91
2023-12-07T09:02:37.346Z,101088.33
2023-12-07T09:05:10.718Z,101083.98
2023-12-07T09:07:38.820Z,101081.74
2023-12-07T09:10:12.223Z,101079.31
2023-12-07T09:12:40.758Z,101076.91
2023-12-07T09:15:09.518Z,101077.95
2023-12-07T09:17:41.095Z,101077.95
2023-12-07T09:20:15.189Z,101081.91
2023-12-07T09:22:47.151Z,101077.45
2023-12-07T09:25:21.955Z,101074.37
2023-12-07T09:27:50.400Z,101071.42
2023-12-07T09:30:19.002Z,101071.07
2023-12-07T09:32:46.948Z,101071.59
2023-12-07T09:35:22.009Z,101071.59
2023-12-07T09:37:55.314Z,101068.46
2023-12-07T09:40:24.279Z,101071.27
2023-12-07T09:42:52.284Z,101068.52
2023-12-07T09:45:21.284Z,101064.23
2023-12-07T09:48:13.799Z,101063.04
2023-12-07T09:50:41.966Z,101058.38
2023-12-07T09:53:15.811Z,101057.19
2023-12-07T09:55:43.872Z,101050.95
2023-12-07T09:58:41.809Z,101049.21
2023-12-07T10:01:11.588Z,101045.60
2023-12-07T10:03:41.126Z,101044.90
2023-12-07T10:06:09.549Z,101048.05
2023-12-07T10:08:38.957Z,101045.79
2023-12-07T10:11:12.223Z,101041.30
2023-12-07T10:13:43.349Z,101036.44
2023-12-07T10:16:18.156Z,101038.49
2023-12-07T10:18:51.716Z,101032.98
2023-12-07T10:21:37.987Z,101032.30
2023-12-07T10:24:11.149Z,101034.06
2023-12-07T10:26:40.971Z,101033.01
2023-12-07T10:29:27.366Z,101037.34
2023-12-07T10:32:07.035Z,101031.96
2023-12-07T10:34:37.531Z,101030.08
2023-12-07T10:37:06.177Z,101027.84
2023-12-07T10:39:36.074Z,101028.38
2023-12-07T10:42:11.638Z,101026.84
2023-12-07T10:44:43.861Z,101023.91
2023-12-07T10:47:11.742Z,101029.30
2023-12-07T10:49:44.745Z,101030.89
2023-12-07T10:52:16.944Z,101026.93
2023-12-07T10:55:06.864Z,101028.51
2023-12-07T10:57:39.601Z,101022.81
2023-12-07T11:00:10.399Z,101027.52
2023-12-07T11:02:43.572Z,101027.52
2023-12-07T11:05:11.870Z,101034.45
2023-12-07T11:07:49.900Z,101032.55
2023-12-07T11:10:29.957Z,101027.70
2023-12-07T11:13:16.750Z,101028.08
2023-12-07T11:15:45.919Z,101017.73
2023-12-07T11:18:15.561Z,101019.98
2023-12-07T11:20:50.908Z,101015.84
2023-12-07T11:23:20.208Z,101011.69
2023-12-07T11:25:53.642Z,101004.45
2023-12-07T11:28:41.240Z,101004.98
2023-12-07T11:31:14.115Z,101001.87
2023-12-07T11:33:50.270Z,101000.81
2023-12-07T11:36:18.533Z,101000.84
2023-12-07T11:39:28.944Z,100999.98
2023-12-07T11:41:57.789Z,100997.56
2023-12-07T11:44:34.400Z,100996.53
2023-12-07T11:47:03.117Z,100993.58
2023-12-07T11:49:36.101Z,100996.36
2023-12-07T11:52:17.221Z,100996.20
2023-12-07T11:54:49.798Z,101001.05
2023-12-07T11:57:19.599Z,101004.17
2023-12-07T11:59:53.306Z,101007.30
2023-12-07T12:02:21.377Z,101004.55
2023-12-07T12:04:49.831Z,101005.09
2023-12-07T12:07:18.297Z,101004.39
2023-12-07T12:09:51.809Z,101008.04
2023-12-07T12:12:20.025Z,101003.19
2023-12-07T12:14:48.132Z,101006.48
2023-12-07T12:17:18.133Z,101005.66
2023-12-07T12:19:46.953Z,101003.75
2023-12-07T12:22:16.031Z,100998.55
2023-12-07T12:24:48.734Z,101005.48
2023-12-07T12:27:17.671Z,101010.35
2023-12-07T12:29:45.944Z,101012.96
2023-12-07T12:32:14.326Z,101009.68
2023-12-07T12:34:43.258Z,101009.02
2023-12-07T12:37:12.242Z,101009.35
2023-12-07T12:39:43.582Z,101010.23
2023-12-07T12:42:17.563Z,101010.77
2023-12-07T12:44:45.858Z,101010.08
2023-12-07T12:47:14.895Z,101010.27
2023-12-07T12:49:46.158Z,101004.56
2023-12-07T12:52:18.997Z,101009.38
2023-12-07T12:54:48.137Z,101007.46
2023-12-07T12:57:18.114Z,101009.02
2023-12-07T12:59:53.093Z,101007.27
2023-12-07T13:02:24.231Z,101007.96
2023-12-07T13:05:00.573Z,101005.91
2023-12-07T13:07:29.178Z,101007.80
2023-12-07T13:09:58.211Z,101007.09
2023-12-07T13:12:29.349Z,101006.55
2023-12-07T13:15:01.019Z,101003.94
2023-12-07T13:17:30.278Z,101005.46
2023-12-07T13:19:58.812Z,101001.45
2023-12-07T13:22:32.352Z,101006.80
2023-12-07T13:25:08.921Z,101006.96
2023-12-07T13:27:37.546Z,101011.63
2023-12-07T13:30:08.727Z,101011.23
2023-12-07T13:32:42.911Z,101017.25
2023-12-07T13:35:11.891Z,101015.67
2023-12-07T13:37:41.003Z,101015.31
2023-12-07T13:40:14.901Z,101020.51
2023-12-07T13:42:43.784Z,101025.69
2023-12-07T13:45:11.687Z,101025.52
2023-12-07T13:47:39.757Z,101021.87
2023-12-07T13:50:09.294Z,101029.46
2023-12-07T13:52:38.238Z,101029.63
2023-12-07T13:55:08.115Z,101030.65
2023-12-07T13:57:37.334Z,101030.66
2023-12-07T14:00:15.586Z,101031.70
2023-12-07T14:02:48.936Z,101029.29
2023-12-07T14:05:19.862Z,101034.14
2023-12-07T14:07:50.487Z,101032.27
2023-12-07T14:10:18.527Z,101034.86
2023-12-07T14:12:48.002Z,101036.97
2023-12-07T14:15:17.576Z,101037.16
2023-12-07T14:17:53.513Z,101034.75
2023-12-07T14:20:43.257Z,101032.52
2023-12-07T14:23:17.013Z,101030.64
2023-12-07T14:25:48.183Z,101033.05
2023-12-07T14:28:16.050Z,101031.86
2023-12-07T14:30:44.177Z,101027.55
2023-12-07T14:33:12.796Z,101028.42
2023-12-07T14:35:44.017Z,101024.81
2023-12-07T14:38:15.909Z,101024.13
2023-12-07T14:40:44.126Z,101020.85
2023-12-07T14:43:12.881Z,101021.04
2023-12-07T14:45:40.745Z,101018.80
2023-12-07T14:48:10.679Z,101021.40
2023-12-07T14:50:39.966Z,101021.05
2023-12-07T14:53:09.420Z,101021.23
2023-12-07T14:55:41.053Z,101021.60
2023-12-07T14:58:08.886Z,101022.64
2023-12-07T15:00:39.841Z,101021.94
2023-12-07T15:03:09.793Z,101022.64
2023-12-07T15:05:38.171Z,101030.08
2023-12-07T15:08:13.352Z,101032.88
2023-12-07T15:10:42.055Z,101024.56
2023-12-07T15:13:10.116Z,101025.27
2023-12-07T15:15:38.183Z,101024.41
2023-12-07T15:18:09.196Z,101025.28
2023-12-07T15:20:37.691Z,101029.96
2023-12-07T15:23:10.295Z,101022.88
2023-12-07T15:25:44.237Z,101027.39
2023-12-07T15:28:15.853Z,101029.64
2023-12-07T15:30:44.443Z,101024.27
2023-12-07T15:33:24.195Z,101024.09
2023-12-07T15:35:52.941Z,101023.91
2023-12-07T15:38:22.296Z,101019.59
2023-12-07T15:40:53.435Z,101016.83
2023-12-07T15:43:25.728Z,101019.79
2023-12-07T15:45:59.902Z,101023.95
2023-12-07T15:48:29.295Z,101022.23
2023-12-07T15:51:00.518Z,101028.64
2023-12-07T15:53:29.739Z,101028.98
2023-12-07T15:55:58.448Z,101030.04
2023-12-07T15:58:29.702Z,101031.59
2023-12-07T16:00:57.986Z,101027.62
2023-12-07T16:03:33.592Z,101020.52
2023-12-07T16:06:06.095Z,101012.93
2023-12-07T16:08:42.086Z,101017.77
2023-12-07T16:11:10.111Z,101014.13
2023-12-07T16:13:37.995Z,101013.79
2023-12-07T16:16:10.650Z,101011.53
2023-12-07T16:18:41.537Z,101011.71
2023-12-07T16:21:11.600Z,101011.40
2023-12-07T16:23:43.661Z,101008.27
2023-12-07T16:26:16.765Z,101007.59
2023-12-07T16:28:45.145Z,101006.75
2023-12-07T16:31:17.395Z,101006.05
2023-12-07T16:33:48.291Z,101005.20
2023-12-07T16:36:23.285Z,101010.58
2023-12-07T16:39:03.009Z,101009.21
2023-12-07T16:41:38.188Z,101009.56
2023-12-07T16:44:16.481Z,100997.98
2023-12-07T16:46:49.581Z,100997.46
2023-12-07T16:49:17.917Z,100996.95
2023-12-07T16:51:50.741Z,100997.64
2023-12-07T16:54:38.510Z,100998.85
2023-12-07T16:57:10.982Z,100999.91
2023-12-07T16:59:39.139Z,100998.17
2023-12-07T17:02:08.211Z,100999.05
2023-12-07T17:04:37.042Z,100998.35
2023-12-07T17:07:10.730Z,100998.55
2023-12-07T17:09:42.020Z,100999.08
2023-12-07T17:14:31.367Z,100973.16
2023-12-07T17:17:00.879Z,100967.06
2023-12-07T17:19:35.365Z,100966.73
2023-12-07T17:22:09.401Z,100965.18
2023-12-07T17:24:42.744Z,100965.20
2023-12-07T17:27:11.156Z,100965.92
2023-12-07T17:29:40.757Z,100968.88
2023-12-07T17:32:17.946Z,100962.33
2023-12-07T17:34:56.790Z,100962.15
2023-12-07T17:37:40.414Z,100954.55
2023-12-07T17:40:14.511Z,100958.71
2023-12-07T17:42:57.844Z,100958.72
2023-12-07T17:45:26.547Z,100957.87
2023-12-07T17:48:04.934Z,100963.95
2023-12-07T17:50:37.668Z,100957.36
2023-12-07T17:53:08.068Z,100958.77
2023-12-07T17:55:41.042Z,100958.94
2023-12-07T17:58:13.617Z,100963.80
2023-12-07T18:00:48.489Z,100965.71
2023-12-07T18:03:28.880Z,100963.65
2023-12-07T18:06:04.993Z,100965.21
2023-12-07T18:08:48.034Z,100963.32
2023-12-07T18:11:21.349Z,100970.06
2023-12-07T18:13:58.582Z,100967.83
2023-12-07T18:16:29.727Z,100967.81
2023-12-07T18:19:13.677Z,100967.30
2023-12-07T18:21:48.827Z,100965.90
2023-12-07T18:24:22.272Z,100965.91
2023-12-07T18:26:56.585Z,100967.13
2023-12-07T18:29:40.089Z,100966.75
2023-12-07T18:32:23.700Z,100975.23
2023-12-07T18:35:10.613Z,100972.46
2023-12-07T18:37:48.174Z,100977.64
2023-12-07T18:40:27.429Z,100979.73
2023-12-07T18:43:07.446Z,100977.64
2023-12-07T18:45:41.591Z,100981.27
2023-12-07T18:48:16.747Z,100978.52
2023-12-07T18:50:50.357Z,100981.10
2023-12-07T18:53:24.975Z,100981.09
2023-12-07T18:56:01.809Z,100977.26
2023-12-07T18:58:36.054Z,100973.63
2023-12-07T19:01:15.129Z,100972.92
2023-12-07T19:03:49.790Z,100968.95
2023-12-07T19:06:27.367Z,100972.22
2023-12-07T19:08:58.581Z,100967.54
2023-12-07T19:11:43.438Z,100967.89
2023-12-07T19:14:18.353Z,100962.85
2023-12-07T19:16:55.982Z,100963.02
2023-12-07T19:19:33.542Z,100960.95
2023-12-07T19:22:09.595Z,100956.45
2023-12-07T19:24:45.053Z,100954.91
2023-12-07T19:27:25.801Z,100958.02
2023-12-07T19:30:08.770Z,100957.48
2023-12-07T19:32:49.630Z,100959.39
2023-12-07T19:35:22.902Z,100955.91
2023-12-07T19:37:56.197Z,100958.52
2023-12-07T19:40:30.737Z,100952.98
2023-12-07T19:42:58.989Z,100957.13
2023-12-07T19:45:27.691Z,100958.15
2023-12-07T19:47:57.900Z,100955.38
2023-12-07T19:50:34.610Z,100954.86
2023-12-07T19:53:03.256Z,100950.02
2023-12-07T19:55:37.982Z,100949.99
2023-12-07T19:58:11.795Z,100951.02
2023-12-07T20:00:43.061Z,100948.59
2023-12-07T20:03:34.485Z,100948.23
2023-12-07T20:06:36.475Z,100946.15
2023-12-07T20:09:15.921Z,100937.35
2023-12-07T20:11:49.597Z,100940.27
2023-12-07T20:14:20.499Z,100940.63
2023-12-07T20:16:54.126Z,100939.23
2023-12-07T20:19:24.630Z,100940.09
2023-12-07T20:21:58.756Z,100937.84
2023-12-07T20:24:31.674Z,100936.10
2023-12-07T20:27:08.706Z,100936.95
2023-12-07T20:29:37.943Z,100938.52
2023-12-07T20:32:27.223Z,100941.81
2023-12-07T20:35:02.909Z,100939.05
2023-12-07T20:37:39.518Z,100936.98
2023-12-07T20:40:15.649Z,100936.29
2023-12-07T20:42:48.669Z,100930.73
2023-12-07T20:45:29.226Z,100932.28
2023-12-07T20:48:31.586Z,100926.92
2023-12-07T20:51:12.528Z,100927.42
2023-12-07T20:53:52.267Z,100931.90
2023-12-07T20:56:25.744Z,100926.52
2023-12-07T20:58:58.732Z,100927.90
2023-12-07T21:01:50.434Z,100932.59
2023-12-07T21:04:24.439Z,100929.30
2023-12-07T21:07:11.354Z,100935.02
2023-12-07T21:10:27.346Z,100932.59
2023-12-07T21:13:18.271Z,100931.39
2023-12-07T21:15:48.349Z,100929.84
2023-12-07T21:18:16.894Z,100929.98
2023-12-07T21:20:48.821Z,100930.86
2023-12-07T21:23:17.115Z,100929.30
2023-12-07T21:26:13.351Z,100929.81
2023-12-07T21:28:57.504Z,100927.21
2023-12-07T21:31:29.628Z,100926.04
2023-12-07T21:34:04.492Z,100931.41
2023-12-07T21:36:41.482Z,100929.16
2023-12-07T21:39:10.074Z,100927.61
2023-12-07T21:41:38.247Z,100922.40
2023-12-07T21:44:22.370Z,100920.31
2023-12-07T21:47:07.702Z,100918.39
2023-12-07T21:49:36.833Z,100920.29
2023-12-07T21:52:14.689Z,100918.20
2023-12-07T21:55:02.375Z,100921.15
2023-12-07T21:57:36.896Z,100917.68
2023-12-07T22:00:09.945Z,100917.53
2023-12-07T22:02:51.854Z,100917.70
2023-12-07T22:05:26.602Z,100918.75
2023-12-07T22:08:03.241Z,100922.57
2023-12-07T22:10:33.718Z,100926.39
2023-12-07T22:13:04.568Z,100927.27
2023-12-07T22:15:39.615Z,100929.34
2023-12-07T22:18:13.015Z,100926.08
2023-12-07T22:20:47.249Z,100930.24
2023-12-07T22:23:22.941Z,100923.16
2023-12-07T22:25:53.372Z,100924.39
2023-12-07T22:28:28.814Z,100924.19
2023-12-07T22:30:56.888Z,100920.90
2023-12-07T22:33:45.230Z,100916.41
2023-12-07T22:36:32.713Z,100915.20
2023-12-07T22:39:21.212Z,100913.63
2023-12-07T22:41:57.126Z,100913.62
2023-12-07T22:44:39.488Z,100907.20
2023-12-07T22:47:12.481Z,100905.33
2023-12-07T22:49:57.428Z,100903.77
2023-12-07T22:52:30.417Z,100904.30
2023-12-07T22:54:58.298Z,100901.71
2023-12-07T22:57:29.060Z,100901.88
2023-12-07T22:59:59.809Z,100906.20
2023-12-07T23:02:28.289Z,100903.27
2023-12-07T23:04:58.980Z,100903.45
2023-12-07T23:07:30.941Z,100907.27
2023-12-07T23:10:04.795Z,100902.94
2023-12-07T23:12:34.652Z,100902.59
2023-12-07T23:15:05.925Z,100905.89
2023-12-07T23:17:39.349Z,100902.23
2023-12-07T23:20:08.392Z,100900.34
2023-12-07T23:22:38.510Z,100900.69
2023-12-07T23:25:08.106Z,100899.30
2023-12-07T23:27:36.497Z,100893.58
2023-12-07T23:30:06.140Z,100889.40
2023-12-07T23:32:34.315Z,100890.98
2023-12-07T23:35:02.717Z,100888.55
2023-12-07T23:37:31.506Z,100889.05
2023-12-07T23:40:07.304Z,100890.08
2023-12-07T23:42:35.679Z,100889.91
2023-12-07T23:45:04.514Z,100893.88
2023-12-07T23:47:39.122Z,100894.04
2023-12-07T23:50:12.299Z,100894.20
2023-12-07T23:52:42.917Z,100901.13
2023-12-07T23:55:11.504Z,100902.66
2023-12-07T23:57:42.049Z,100906.12
